Turret, Colorado
Current Conditions -  °F | °C
As of 5:15 AM on Friday 28 Nov 2014 (Local Time) from KANK Reporting Station
Clear Clear  
Wind Chill: 43°   Ceiling: Unl
Heat Index: 47°   Visibility: 10mi
Dew Point:   Wind: 10mph
Humidity: 19%   Direction: 220°SW
Pressure: 30.23"   Gusts: 17mph
Location:  38.5561°N, 106.066°W
Report Text: KANK 281215Z AUTO 22009G15KT 10SM CLR 09/M14 A3023 RMK AO1 T00861139
Loading
Personal Weather Stations






























Interactive Weather Map New forecast layout! Learn more

10-Day Weather Forecast

Advertisements
Track Severe Weather on mobile